Airfield :
LOGIN :

Register | Disclaimer

   EN    FR    IT 

 










Legend :    VFR   Marginal VFR   IFR   Intensive IFR   Very Intensive IFR
Visi :
Ceiling :
>= 8 km
>= 3000ft
5 to 8 km
1000 to 3000 ft
1500m to 5 km
500 to 1000 ft
800 to 1500m
200 to 500 ft
< 800m
< 200 ft
Symbols :   Thunderstorms  Fog  Heavy snow  Heavy precipitations  Wind > 20 kt
SIGMETs :     Misc.  Thunderstorms  Icing  Turbulence  Mountain Waves  Volcanic Ashes







- Airport Elevation : 1043 ft
- IATA code : SLD


LZSL - Sliac

CURRENT METAR :
  • 212300Z 22004KT 180V300 9999 FEW040 OVC080 10/08 Q1014

EXPIRED METARs :
  • 212230Z 20005KT 150V220 9999 FEW040 OVC080 10/08 Q1014
  • 212200Z 20005KT 9999 FEW040 OVC100 10/08 Q1014
  • 212130Z 19003KT 150V230 9999 FEW040 OVC090 10/08 Q1014
  • 212100Z 22004KT 170V250 9999 FEW040 OVC100 11/08 Q1014
  • 212030Z 32003KT 240V030 9999 FEW040 BKN084 11/07 Q1014
  • 212000Z 01004KT 280V080 9999 FEW046 BKN084 10/07 Q1014

TAF TAF LZSL
Valid from the 21 at 21:00 until the 22 at 06:00 UTC


212000Z 2121/2206 34006KT 9999 BKN045 OVC080
BECMG 2121/2123 VRB02KT 4000 BR SCT008 BKN030
TEMPO 2123/2206 1500 MIFG SCT003 BKN020
PROB40 2201/2206 0400 FG BKN002
No reported NOTAMs for that airfield.



MET'MAP, your aeronautical weather chart ! - Copyright ORBIFLY December 2007 - Disclaimer

ORBIFLY MET'MAP TEAM :

Programming & Development : Alexandra Zaïnal
Concept & Development : Baudouin d'Aumeries
Co-Development & Prog : Marc-Olivier Méhu
Technical & hardware support : Manuel Goepfert

Contact : metmap@orbifly.com




SOURCES & CREDITS :

   NOAA